sensor_id;sensor_type;location;lat;lon;timestamp;pressure;altitude;pressure_sealevel;temperature;humidity
62864;BME280;48954;59.950;11.014;2022-08-30T00:01:59;100891.08;;;8.28;69.38
62864;BME280;48954;59.950;11.014;2022-08-30T00:04:25;100895.17;;;8.26;69.42
62864;BME280;48954;59.950;11.014;2022-08-30T00:06:52;100892.01;;;8.26;69.52
62864;BME280;48954;59.950;11.014;2022-08-30T00:09:19;100893.19;;;8.24;69.58
62864;BME280;48954;59.950;11.014;2022-08-30T00:11:45;100895.42;;;8.22;69.65
62864;BME280;48954;59.950;11.014;2022-08-30T00:14:13;100890.45;;;8.20;69.62
62864;BME280;48954;59.950;11.014;2022-08-30T00:16:39;100892.38;;;8.19;69.90
62864;BME280;48954;59.950;11.014;2022-08-30T00:19:06;100890.02;;;8.19;70.05
62864;BME280;48954;59.950;11.014;2022-08-30T00:21:33;100891.31;;;8.18;69.95
62864;BME280;48954;59.950;11.014;2022-08-30T00:24:02;100893.99;;;8.17;69.97
62864;BME280;48954;59.950;11.014;2022-08-30T00:26:28;100895.70;;;8.15;70.16
62864;BME280;48954;59.950;11.014;2022-08-30T00:28:55;100897.29;;;8.10;70.21
62864;BME280;48954;59.950;11.014;2022-08-30T00:31:21;100903.19;;;8.11;70.27
62864;BME280;48954;59.950;11.014;2022-08-30T00:33:48;100905.76;;;8.09;70.41
62864;BME280;48954;59.950;11.014;2022-08-30T00:36:15;100908.58;;;8.08;70.40
62864;BME280;48954;59.950;11.014;2022-08-30T00:38:41;100907.58;;;8.04;70.46
62864;BME280;48954;59.950;11.014;2022-08-30T00:41:08;100913.20;;;8.05;70.69
62864;BME280;48954;59.950;11.014;2022-08-30T00:43:36;100916.45;;;8.04;70.74
62864;BME280;48954;59.950;11.014;2022-08-30T00:46:04;100923.71;;;8.02;70.81
62864;BME280;48954;59.950;11.014;2022-08-30T00:48:31;100925.05;;;8.01;70.84
62864;BME280;48954;59.950;11.014;2022-08-30T00:51:02;100930.23;;;8.00;71.05
62864;BME280;48954;59.950;11.014;2022-08-30T00:53:32;100933.09;;;7.99;71.19
62864;BME280;48954;59.950;11.014;2022-08-30T00:55:59;100936.02;;;7.98;71.02
62864;BME280;48954;59.950;11.014;2022-08-30T00:58:31;100936.95;;;7.98;71.23
62864;BME280;48954;59.950;11.014;2022-08-30T01:00:59;100934.34;;;7.98;71.12
62864;BME280;48954;59.950;11.014;2022-08-30T01:03:29;100932.31;;;7.98;71.37
62864;BME280;48954;59.950;11.014;2022-08-30T01:05:57;100933.73;;;7.98;71.42
62864;BME280;48954;59.950;11.014;2022-08-30T01:08:23;100937.17;;;7.98;71.35
62864;BME280;48954;59.950;11.014;2022-08-30T01:10:52;100938.85;;;7.97;71.44
62864;BME280;48954;59.950;11.014;2022-08-30T01:13:20;100940.25;;;7.96;71.46
62864;BME280;48954;59.950;11.014;2022-08-30T01:15:47;100945.09;;;7.95;71.59
62864;BME280;48954;59.950;11.014;2022-08-30T01:18:15;100947.38;;;7.96;71.62
62864;BME280;48954;59.950;11.014;2022-08-30T01:23:31;100950.69;;;7.95;71.87
62864;BME280;48954;59.950;11.014;2022-08-30T01:26:03;100956.27;;;7.95;71.99
62864;BME280;48954;59.950;11.014;2022-08-30T01:28:31;100959.48;;;7.95;72.01
62864;BME280;48954;59.950;11.014;2022-08-30T01:30:58;100960.84;;;7.94;72.07
62864;BME280;48954;59.950;11.014;2022-08-30T01:33:24;100960.84;;;7.92;72.25
62864;BME280;48954;59.950;11.014;2022-08-30T01:35:57;100961.67;;;7.92;72.13
62864;BME280;48954;59.950;11.014;2022-08-30T01:38:48;100961.45;;;7.90;72.28
62864;BME280;48954;59.950;11.014;2022-08-30T01:41:18;100968.02;;;7.87;72.30
62864;BME280;48954;59.950;11.014;2022-08-30T01:43:46;100969.95;;;7.84;72.32
62864;BME280;48954;59.950;11.014;2022-08-30T01:46:15;100974.02;;;7.81;72.43
62864;BME280;48954;59.950;11.014;2022-08-30T01:48:44;100972.14;;;7.78;72.62
62864;BME280;48954;59.950;11.014;2022-08-30T01:51:12;100973.12;;;7.78;72.79
62864;BME280;48954;59.950;11.014;2022-08-30T01:53:40;100978.43;;;7.76;72.56
62864;BME280;48954;59.950;11.014;2022-08-30T01:56:08;100978.06;;;7.76;72.65
62864;BME280;48954;59.950;11.014;2022-08-30T01:58:36;100975.15;;;7.74;72.59
62864;BME280;48954;59.950;11.014;2022-08-30T02:01:06;100973.20;;;7.70;72.46
62864;BME280;48954;59.950;11.014;2022-08-30T02:03:33;100973.95;;;7.71;72.65
62864;BME280;48954;59.950;11.014;2022-08-30T02:06:04;100975.90;;;7.69;72.60
62864;BME280;48954;59.950;11.014;2022-08-30T02:08:32;100976.77;;;7.68;72.71
62864;BME280;48954;59.950;11.014;2022-08-30T02:10:59;100974.71;;;7.66;72.60
62864;BME280;48954;59.950;11.014;2022-08-30T02:13:26;100970.17;;;7.65;72.43
62864;BME280;48954;59.950;11.014;2022-08-30T02:15:53;100972.07;;;7.63;72.53
62864;BME280;48954;59.950;11.014;2022-08-30T02:18:22;100969.76;;;7.61;72.50
62864;BME280;48954;59.950;11.014;2022-08-30T02:20:49;100970.06;;;7.60;72.58
62864;BME280;48954;59.950;11.014;2022-08-30T02:23:16;100968.75;;;7.57;72.61
62864;BME280;48954;59.950;11.014;2022-08-30T02:25:44;100969.41;;;7.52;72.56
62864;BME280;48954;59.950;11.014;2022-08-30T02:28:11;100966.41;;;7.52;72.38
62864;BME280;48954;59.950;11.014;2022-08-30T02:30:38;100968.61;;;7.49;72.43
62864;BME280;48954;59.950;11.014;2022-08-30T02:33:05;100971.59;;;7.48;72.61
62864;BME280;48954;59.950;11.014;2022-08-30T02:35:32;100974.91;;;7.46;72.64
62864;BME280;48954;59.950;11.014;2022-08-30T02:37:58;100977.76;;;7.44;72.39
62864;BME280;48954;59.950;11.014;2022-08-30T02:40:25;100974.54;;;7.41;72.60
62864;BME280;48954;59.950;11.014;2022-08-30T02:42:57;100971.89;;;7.40;72.41
62864;BME280;48954;59.950;11.014;2022-08-30T02:45:24;100969.10;;;7.36;72.42
62864;BME280;48954;59.950;11.014;2022-08-30T02:47:50;100971.92;;;7.36;72.49
62864;BME280;48954;59.950;11.014;2022-08-30T02:50:17;100972.84;;;7.34;72.43
62864;BME280;48954;59.950;11.014;2022-08-30T02:52:44;100971.23;;;7.33;72.60
62864;BME280;48954;59.950;11.014;2022-08-30T02:55:11;100970.55;;;7.31;72.60
62864;BME280;48954;59.950;11.014;2022-08-30T02:57:37;100970.19;;;7.30;72.74
62864;BME280;48954;59.950;11.014;2022-08-30T03:00:06;100964.53;;;7.28;72.85
62864;BME280;48954;59.950;11.014;2022-08-30T03:02:43;100965.17;;;7.27;72.73
62864;BME280;48954;59.950;11.014;2022-08-30T03:05:12;100965.59;;;7.26;72.97
62864;BME280;48954;59.950;11.014;2022-08-30T03:07:40;100965.41;;;7.24;72.68
62864;BME280;48954;59.950;11.014;2022-08-30T03:10:07;100965.39;;;7.22;73.00
62864;BME280;48954;59.950;11.014;2022-08-30T03:12:35;100966.04;;;7.20;72.95
62864;BME280;48954;59.950;11.014;2022-08-30T03:15:03;100972.75;;;7.18;73.02
62864;BME280;48954;59.950;11.014;2022-08-30T03:17:30;100973.65;;;7.16;73.03
62864;BME280;48954;59.950;11.014;2022-08-30T03:19:57;100974.90;;;7.15;73.11
62864;BME280;48954;59.950;11.014;2022-08-30T03:22:25;100975.22;;;7.13;73.10
62864;BME280;48954;59.950;11.014;2022-08-30T03:24:51;100977.62;;;7.11;73.08
62864;BME280;48954;59.950;11.014;2022-08-30T03:27:18;100984.14;;;7.11;73.27
62864;BME280;48954;59.950;11.014;2022-08-30T03:29:44;100979.50;;;7.10;73.27
62864;BME280;48954;59.950;11.014;2022-08-30T03:32:11;100979.20;;;7.09;73.35
62864;BME280;48954;59.950;11.014;2022-08-30T03:34:37;100981.66;;;7.08;73.29
62864;BME280;48954;59.950;11.014;2022-08-30T03:37:04;100983.88;;;7.07;73.55
62864;BME280;48954;59.950;11.014;2022-08-30T03:39:30;100986.89;;;7.07;73.46
62864;BME280;48954;59.950;11.014;2022-08-30T03:41:57;100986.98;;;7.05;73.52
62864;BME280;48954;59.950;11.014;2022-08-30T03:44:30;100986.83;;;7.05;73.49
62864;BME280;48954;59.950;11.014;2022-08-30T03:46:57;100985.31;;;7.04;73.42
62864;BME280;48954;59.950;11.014;2022-08-30T03:49:23;100988.16;;;7.03;73.35
62864;BME280;48954;59.950;11.014;2022-08-30T03:51:50;100985.58;;;7.02;73.45
62864;BME280;48954;59.950;11.014;2022-08-30T03:54:18;100985.77;;;7.01;73.55
62864;BME280;48954;59.950;11.014;2022-08-30T03:56:45;100983.67;;;6.99;73.55
62864;BME280;48954;59.950;11.014;2022-08-30T03:59:13;100987.38;;;6.97;73.83
62864;BME280;48954;59.950;11.014;2022-08-30T04:01:39;100992.42;;;6.99;74.01
62864;BME280;48954;59.950;11.014;2022-08-30T04:04:07;100995.48;;;7.00;73.83
62864;BME280;48954;59.950;11.014;2022-08-30T04:06:34;100997.02;;;6.99;74.18
62864;BME280;48954;59.950;11.014;2022-08-30T04:09:00;100999.02;;;6.99;74.20
62864;BME280;48954;59.950;11.014;2022-08-30T04:11:27;101001.30;;;6.99;74.13
62864;BME280;48954;59.950;11.014;2022-08-30T04:13:53;101004.45;;;7.01;74.20
62864;BME280;48954;59.950;11.014;2022-08-30T04:16:20;101007.96;;;7.04;74.64
62864;BME280;48954;59.950;11.014;2022-08-30T04:18:46;101014.50;;;7.06;74.69
62864;BME280;48954;59.950;11.014;2022-08-30T04:21:13;101016.45;;;7.07;74.70
62864;BME280;48954;59.950;11.014;2022-08-30T04:23:40;101013.27;;;7.06;74.72
62864;BME280;48954;59.950;11.014;2022-08-30T04:26:07;101014.96;;;7.09;74.43
62864;BME280;48954;59.950;11.014;2022-08-30T04:28:33;101016.97;;;7.11;74.51
62864;BME280;48954;59.950;11.014;2022-08-30T04:31:09;101020.98;;;7.12;74.71
62864;BME280;48954;59.950;11.014;2022-08-30T04:33:36;101028.09;;;7.13;74.72
62864;BME280;48954;59.950;11.014;2022-08-30T04:36:05;101029.59;;;7.14;74.76
62864;BME280;48954;59.950;11.014;2022-08-30T04:38:33;101026.20;;;7.13;74.62
62864;BME280;48954;59.950;11.014;2022-08-30T04:41:00;101031.63;;;7.18;74.72
62864;BME280;48954;59.950;11.014;2022-08-30T04:43:27;101033.30;;;7.20;74.80
62864;BME280;48954;59.950;11.014;2022-08-30T04:45:54;101031.67;;;7.19;74.75
62864;BME280;48954;59.950;11.014;2022-08-30T04:48:21;101035.42;;;7.21;74.72
62864;BME280;48954;59.950;11.014;2022-08-30T04:50:52;101035.17;;;7.22;74.74
62864;BME280;48954;59.950;11.014;2022-08-30T04:53:24;101040.37;;;7.22;74.98
62864;BME280;48954;59.950;11.014;2022-08-30T04:55:50;101038.87;;;7.23;74.77
62864;BME280;48954;59.950;11.014;2022-08-30T04:58:17;101044.52;;;7.25;74.82
62864;BME280;48954;59.950;11.014;2022-08-30T05:00:44;101045.75;;;7.28;75.04
62864;BME280;48954;59.950;11.014;2022-08-30T05:03:11;101042.41;;;7.31;75.14
62864;BME280;48954;59.950;11.014;2022-08-30T05:05:40;101043.29;;;7.34;75.09
62864;BME280;48954;59.950;11.014;2022-08-30T05:08:14;101045.16;;;7.36;75.11
62864;BME280;48954;59.950;11.014;2022-08-30T05:10:46;101046.83;;;7.40;75.10
62864;BME280;48954;59.950;11.014;2022-08-30T05:13:15;101051.63;;;7.43;75.36
62864;BME280;48954;59.950;11.014;2022-08-30T05:15:45;101049.33;;;7.48;75.52
62864;BME280;48954;59.950;11.014;2022-08-30T05:18:13;101051.08;;;7.53;75.50
62864;BME280;48954;59.950;11.014;2022-08-30T05:20:41;101058.55;;;7.60;75.46
62864;BME280;48954;59.950;11.014;2022-08-30T05:23:10;101056.27;;;7.66;75.61
62864;BME280;48954;59.950;11.014;2022-08-30T05:25:39;101061.08;;;7.74;75.59
62864;BME280;48954;59.950;11.014;2022-08-30T05:28:11;101059.40;;;7.82;75.72
62864;BME280;48954;59.950;11.014;2022-08-30T05:30:38;101060.19;;;7.91;75.66
62864;BME280;48954;59.950;11.014;2022-08-30T05:33:15;101061.80;;;8.02;75.73
62864;BME280;48954;59.950;11.014;2022-08-30T05:35:42;101059.52;;;8.12;75.79
62864;BME280;48954;59.950;11.014;2022-08-30T05:38:10;101059.56;;;8.24;75.59
62864;BME280;48954;59.950;11.014;2022-08-30T05:40:41;101059.86;;;8.35;75.58
62864;BME280;48954;59.950;11.014;2022-08-30T05:43:11;101062.59;;;8.46;75.52
62864;BME280;48954;59.950;11.014;2022-08-30T05:46:05;101058.96;;;8.57;75.61
62864;BME280;48954;59.950;11.014;2022-08-30T05:48:35;101064.23;;;8.71;75.53
62864;BME280;48954;59.950;11.014;2022-08-30T05:53:36;101065.92;;;8.94;75.27
62864;BME280;48954;59.950;11.014;2022-08-30T05:56:17;101066.14;;;9.05;75.13
62864;BME280;48954;59.950;11.014;2022-08-30T05:58:59;101062.56;;;9.18;74.99
62864;BME280;48954;59.950;11.014;2022-08-30T06:01:38;101066.00;;;9.31;74.83
62864;BME280;48954;59.950;11.014;2022-08-30T06:04:08;101065.25;;;9.43;74.64
62864;BME280;48954;59.950;11.014;2022-08-30T06:06:43;101065.44;;;9.55;74.43
62864;BME280;48954;59.950;11.014;2022-08-30T06:09:12;101070.69;;;9.67;74.29
62864;BME280;48954;59.950;11.014;2022-08-30T06:11:42;101067.89;;;9.79;74.18
62864;BME280;48954;59.950;11.014;2022-08-30T06:14:10;101068.17;;;9.90;73.98
62864;BME280;48954;59.950;11.014;2022-08-30T06:16:42;101066.98;;;10.00;73.53
62864;BME280;48954;59.950;11.014;2022-08-30T06:19:11;101063.17;;;10.12;73.39
62864;BME280;48954;59.950;11.014;2022-08-30T06:21:42;101059.76;;;10.23;73.21
62864;BME280;48954;59.950;11.014;2022-08-30T06:24:19;101060.98;;;10.34;73.11
62864;BME280;48954;59.950;11.014;2022-08-30T06:26:48;101062.42;;;10.45;72.90
62864;BME280;48954;59.950;11.014;2022-08-30T06:29:20;101061.84;;;10.56;72.67
62864;BME280;48954;59.950;11.014;2022-08-30T06:31:49;101062.83;;;10.65;72.46
62864;BME280;48954;59.950;11.014;2022-08-30T06:34:16;101062.41;;;10.74;72.22
62864;BME280;48954;59.950;11.014;2022-08-30T06:36:48;101067.88;;;10.84;72.08
62864;BME280;48954;59.950;11.014;2022-08-30T06:39:15;101069.17;;;10.93;71.86
62864;BME280;48954;59.950;11.014;2022-08-30T06:41:42;101075.15;;;11.03;71.54
62864;BME280;48954;59.950;11.014;2022-08-30T06:44:10;101073.08;;;11.11;71.60
62864;BME280;48954;59.950;11.014;2022-08-30T06:46:37;101072.29;;;11.21;71.31
62864;BME280;48954;59.950;11.014;2022-08-30T06:49:05;101068.08;;;11.28;71.01
62864;BME280;48954;59.950;11.014;2022-08-30T06:51:38;101066.89;;;11.35;70.96
62864;BME280;48954;59.950;11.014;2022-08-30T06:54:15;101061.60;;;11.43;70.74
62864;BME280;48954;59.950;11.014;2022-08-30T06:56:45;101068.45;;;11.53;70.46
62864;BME280;48954;59.950;11.014;2022-08-30T06:59:13;101073.55;;;11.59;70.23
62864;BME280;48954;59.950;11.014;2022-08-30T07:01:41;101074.52;;;11.67;69.99
62864;BME280;48954;59.950;11.014;2022-08-30T07:04:13;101073.79;;;11.76;69.83
62864;BME280;48954;59.950;11.014;2022-08-30T07:06:42;101081.73;;;11.86;69.51
62864;BME280;48954;59.950;11.014;2022-08-30T07:09:09;101083.05;;;11.94;69.20
62864;BME280;48954;59.950;11.014;2022-08-30T07:11:36;101084.11;;;12.01;68.80
62864;BME280;48954;59.950;11.014;2022-08-30T07:14:04;101083.22;;;12.06;68.53
62864;BME280;48954;59.950;11.014;2022-08-30T07:16:33;101088.63;;;12.14;68.63
62864;BME280;48954;59.950;11.014;2022-08-30T07:19:02;101092.81;;;12.23;68.37
62864;BME280;48954;59.950;11.014;2022-08-30T07:21:39;101095.48;;;12.31;68.01
62864;BME280;48954;59.950;11.014;2022-08-30T07:24:08;101095.41;;;12.38;67.57
62864;BME280;48954;59.950;11.014;2022-08-30T07:26:49;101089.84;;;12.45;67.29
62864;BME280;48954;59.950;11.014;2022-08-30T07:29:17;101089.88;;;12.50;67.11
62864;BME280;48954;59.950;11.014;2022-08-30T07:31:44;101093.23;;;12.59;66.80
62864;BME280;48954;59.950;11.014;2022-08-30T07:34:13;101095.89;;;12.66;66.52
62864;BME280;48954;59.950;11.014;2022-08-30T07:36:41;101099.56;;;12.75;66.13
62864;BME280;48954;59.950;11.014;2022-08-30T07:39:21;101099.56;;;12.83;65.88
62864;BME280;48954;59.950;11.014;2022-08-30T07:42:02;101100.98;;;12.93;65.77
62864;BME280;48954;59.950;11.014;2022-08-30T07:44:29;101102.55;;;13.02;65.33
62864;BME280;48954;59.950;11.014;2022-08-30T07:46:58;101100.42;;;13.13;65.05
62864;BME280;48954;59.950;11.014;2022-08-30T07:49:24;101096.65;;;13.25;65.04
62864;BME280;48954;59.950;11.014;2022-08-30T07:51:52;101098.93;;;13.37;64.85
62864;BME280;48954;59.950;11.014;2022-08-30T07:54:19;101099.10;;;13.47;64.34
62864;BME280;48954;59.950;11.014;2022-08-30T07:56:46;101102.70;;;13.53;64.08
62864;BME280;48954;59.950;11.014;2022-08-30T07:59:14;101102.33;;;13.64;63.90
62864;BME280;48954;59.950;11.014;2022-08-30T08:01:41;101101.67;;;13.74;63.49
62864;BME280;48954;59.950;11.014;2022-08-30T08:04:11;101099.23;;;13.81;63.13
62864;BME280;48954;59.950;11.014;2022-08-30T08:06:51;101098.27;;;13.94;62.63
62864;BME280;48954;59.950;11.014;2022-08-30T08:09:22;101100.80;;;13.99;62.40
62864;BME280;48954;59.950;11.014;2022-08-30T08:11:50;101098.27;;;14.05;62.13
62864;BME280;48954;59.950;11.014;2022-08-30T08:14:22;101097.63;;;14.12;62.07
62864;BME280;48954;59.950;11.014;2022-08-30T08:17:02;101099.00;;;14.21;61.65
62864;BME280;48954;59.950;11.014;2022-08-30T08:19:29;101101.00;;;14.30;61.52
62864;BME280;48954;59.950;11.014;2022-08-30T08:21:58;101102.30;;;14.39;61.32
62864;BME280;48954;59.950;11.014;2022-08-30T08:24:27;101100.25;;;14.50;61.17
62864;BME280;48954;59.950;11.014;2022-08-30T08:26:56;101099.18;;;14.63;60.89
62864;BME280;48954;59.950;11.014;2022-08-30T08:29:36;101100.36;;;14.75;60.43
62864;BME280;48954;59.950;11.014;2022-08-30T08:32:17;101091.33;;;14.71;59.72
62864;BME280;48954;59.950;11.014;2022-08-30T08:34:46;101099.55;;;14.80;59.63
62864;BME280;48954;59.950;11.014;2022-08-30T08:37:18;101100.32;;;14.82;59.36
62864;BME280;48954;59.950;11.014;2022-08-30T08:39:59;101097.56;;;14.91;59.00
62864;BME280;48954;59.950;11.014;2022-08-30T08:49:02;101093.04;;;14.61;57.59
62864;BME280;48954;59.950;11.014;2022-08-30T08:51:26;101098.64;;;14.49;57.82
62864;BME280;48954;59.950;11.014;2022-08-30T08:53:59;101096.48;;;14.49;57.82
62864;BME280;48954;59.950;11.014;2022-08-30T08:56:40;101098.41;;;14.56;57.82
62864;BME280;48954;59.950;11.014;2022-08-30T08:59:09;101093.71;;;14.62;57.86
62864;BME280;48954;59.950;11.014;2022-08-30T09:01:37;101089.38;;;14.66;57.55
62864;BME280;48954;59.950;11.014;2022-08-30T09:04:23;101091.52;;;14.70;57.34
62864;BME280;48954;59.950;11.014;2022-08-30T09:07:21;101092.34;;;14.71;57.06
62864;BME280;48954;59.950;11.014;2022-08-30T09:09:56;101094.31;;;14.74;56.73
62864;BME280;48954;59.950;11.014;2022-08-30T09:12:34;101088.52;;;14.82;56.82
62864;BME280;48954;59.950;11.014;2022-08-30T09:15:22;101088.25;;;14.89;56.38
62864;BME280;48954;59.950;11.014;2022-08-30T09:17:54;101084.95;;;14.96;56.83
62864;BME280;48954;59.950;11.014;2022-08-30T09:20:24;101086.20;;;15.06;56.58
62864;BME280;48954;59.950;11.014;2022-08-30T09:22:51;101085.80;;;15.18;56.42
62864;BME280;48954;59.950;11.014;2022-08-30T09:25:28;101089.23;;;15.25;56.12
62864;BME280;48954;59.950;11.014;2022-08-30T09:28:13;101087.27;;;15.35;55.84
62864;BME280;48954;59.950;11.014;2022-08-30T09:31:03;101086.58;;;15.40;55.57
62864;BME280;48954;59.950;11.014;2022-08-30T09:33:39;101087.20;;;15.36;55.44
62864;BME280;48954;59.950;11.014;2022-08-30T09:36:19;101086.39;;;15.28;55.26
62864;BME280;48954;59.950;11.014;2022-08-30T09:38:56;101085.20;;;15.29;55.19
62864;BME280;48954;59.950;11.014;2022-08-30T09:41:38;101081.56;;;15.32;54.96
62864;BME280;48954;59.950;11.014;2022-08-30T09:44:19;101080.27;;;15.34;54.50
62864;BME280;48954;59.950;11.014;2022-08-30T09:49:35;101075.86;;;15.42;54.08
62864;BME280;48954;59.950;11.014;2022-08-30T09:55:03;101069.08;;;15.63;53.96
62864;BME280;48954;59.950;11.014;2022-08-30T09:57:50;101069.45;;;15.72;53.87
62864;BME280;48954;59.950;11.014;2022-08-30T10:00:35;101071.73;;;15.72;53.40
62864;BME280;48954;59.950;11.014;2022-08-30T10:06:14;101074.33;;;15.69;53.14
62864;BME280;48954;59.950;11.014;2022-08-30T10:12:38;101070.56;;;15.62;53.14
62864;BME280;48954;59.950;11.014;2022-08-30T10:17:59;101069.17;;;15.56;52.32
62864;BME280;48954;59.950;11.014;2022-08-30T10:20:34;101069.13;;;15.49;52.34
62864;BME280;48954;59.950;11.014;2022-08-30T10:23:16;101070.38;;;15.52;52.66
62864;BME280;48954;59.950;11.014;2022-08-30T10:26:08;101073.11;;;15.55;52.64
62864;BME280;48954;59.950;11.014;2022-08-30T10:28:58;101073.42;;;15.58;52.58
62864;BME280;48954;59.950;11.014;2022-08-30T10:31:47;101071.28;;;15.62;52.93
62864;BME280;48954;59.950;11.014;2022-08-30T10:34:21;101071.04;;;15.72;52.92
62864;BME280;48954;59.950;11.014;2022-08-30T10:36:58;101072.80;;;15.87;52.91
62864;BME280;48954;59.950;11.014;2022-08-30T10:39:33;101079.65;;;16.03;52.87
62864;BME280;48954;59.950;11.014;2022-08-30T10:42:30;101080.60;;;16.11;52.20
62864;BME280;48954;59.950;11.014;2022-08-30T10:45:06;101074.11;;;16.15;52.13
62864;BME280;48954;59.950;11.014;2022-08-30T10:47:59;101074.20;;;16.23;52.26
62864;BME280;48954;59.950;11.014;2022-08-30T10:50:33;101076.64;;;16.30;51.62
62864;BME280;48954;59.950;11.014;2022-08-30T10:53:16;101074.67;;;16.31;51.46
62864;BME280;48954;59.950;11.014;2022-08-30T10:55:52;101071.52;;;16.35;51.27
62864;BME280;48954;59.950;11.014;2022-08-30T10:58:22;101068.34;;;16.36;51.24
62864;BME280;48954;59.950;11.014;2022-08-30T11:13:00;101063.00;;;16.63;51.32
62864;BME280;48954;59.950;11.014;2022-08-30T11:15:34;101063.63;;;16.69;50.95
62864;BME280;48954;59.950;11.014;2022-08-30T11:20:40;101058.64;;;16.63;50.54
62864;BME280;48954;59.950;11.014;2022-08-30T11:23:33;101059.31;;;16.68;50.45
62864;BME280;48954;59.950;11.014;2022-08-30T11:33:55;101042.66;;;16.74;49.79
62864;BME280;48954;59.950;11.014;2022-08-30T11:38:59;101047.36;;;16.79;50.22
62864;BME280;48954;59.950;11.014;2022-08-30T11:41:42;101037.56;;;16.77;50.19
62864;BME280;48954;59.950;11.014;2022-08-30T11:46:48;101035.96;;;16.85;50.15
62864;BME280;48954;59.950;11.014;2022-08-30T11:49:25;101039.58;;;16.88;50.21
62864;BME280;48954;59.950;11.014;2022-08-30T11:55:10;101035.37;;;16.93;49.69
62864;BME280;48954;59.950;11.014;2022-08-30T12:00:36;101032.23;;;16.95;49.26
62864;BME280;48954;59.950;11.014;2022-08-30T12:05:51;101034.23;;;17.16;49.43
62864;BME280;48954;59.950;11.014;2022-08-30T12:18:49;101033.86;;;17.69;48.46
62864;BME280;48954;59.950;11.014;2022-08-30T12:23:53;101026.64;;;17.27;48.90
62864;BME280;48954;59.950;11.014;2022-08-30T12:29:15;101028.23;;;17.02;48.61
62864;BME280;48954;59.950;11.014;2022-08-30T12:32:16;101030.69;;;16.98;49.14
62864;BME280;48954;59.950;11.014;2022-08-30T12:42:51;101021.92;;;16.91;48.64
62864;BME280;48954;59.950;11.014;2022-08-30T12:45:24;101024.48;;;17.06;48.97
62864;BME280;48954;59.950;11.014;2022-08-30T12:47:57;101021.38;;;17.21;49.13
62864;BME280;48954;59.950;11.014;2022-08-30T12:50:27;101024.67;;;17.39;49.17
62864;BME280;48954;59.950;11.014;2022-08-30T12:53:02;101025.34;;;17.53;48.91
62864;BME280;48954;59.950;11.014;2022-08-30T12:55:34;101024.06;;;17.58;48.81
62864;BME280;48954;59.950;11.014;2022-08-30T12:58:08;101015.73;;;17.58;48.24
62864;BME280;48954;59.950;11.014;2022-08-30T13:00:45;101018.56;;;17.65;48.69
62864;BME280;48954;59.950;11.014;2022-08-30T13:03:29;101019.77;;;17.67;48.34
62864;BME280;48954;59.950;11.014;2022-08-30T13:05:58;101021.45;;;17.73;48.19
62864;BME280;48954;59.950;11.014;2022-08-30T13:08:33;101016.65;;;17.77;48.01
62864;BME280;48954;59.950;11.014;2022-08-30T13:11:10;101013.98;;;17.80;48.36
62864;BME280;48954;59.950;11.014;2022-08-30T13:13:42;101012.44;;;17.89;47.91
62864;BME280;48954;59.950;11.014;2022-08-30T13:18:50;101015.63;;;18.10;47.44
62864;BME280;48954;59.950;11.014;2022-08-30T13:21:27;101009.80;;;18.08;47.38
62864;BME280;48954;59.950;11.014;2022-08-30T13:23:59;101005.48;;;18.12;47.62
62864;BME280;48954;59.950;11.014;2022-08-30T13:26:34;100998.64;;;18.13;47.46
62864;BME280;48954;59.950;11.014;2022-08-30T13:29:05;100999.36;;;18.06;47.16
62864;BME280;48954;59.950;11.014;2022-08-30T13:31:32;100996.46;;;17.97;47.16
62864;BME280;48954;59.950;11.014;2022-08-30T13:34:02;100995.29;;;17.92;47.10
62864;BME280;48954;59.950;11.014;2022-08-30T13:36:44;100991.40;;;17.85;46.81
62864;BME280;48954;59.950;11.014;2022-08-30T13:39:12;100993.65;;;17.76;46.88
62864;BME280;48954;59.950;11.014;2022-08-30T13:41:39;100991.90;;;17.64;46.96
62864;BME280;48954;59.950;11.014;2022-08-30T13:44:05;100986.27;;;17.56;46.81
62864;BME280;48954;59.950;11.014;2022-08-30T13:46:33;100984.14;;;17.56;46.69
62864;BME280;48954;59.950;11.014;2022-08-30T13:49:06;100984.69;;;17.60;46.95
62864;BME280;48954;59.950;11.014;2022-08-30T13:51:35;100981.48;;;17.69;46.44
62864;BME280;48954;59.950;11.014;2022-08-30T13:54:02;100981.71;;;17.69;46.77
62864;BME280;48954;59.950;11.014;2022-08-30T13:56:30;100981.40;;;17.69;46.62
62864;BME280;48954;59.950;11.014;2022-08-30T13:58:58;100976.79;;;17.69;46.57
62864;BME280;48954;59.950;11.014;2022-08-30T14:01:26;100973.73;;;17.72;46.87
62864;BME280;48954;59.950;11.014;2022-08-30T14:04:01;100976.62;;;17.67;46.49
62864;BME280;48954;59.950;11.014;2022-08-30T14:06:42;100972.66;;;17.59;46.41
62864;BME280;48954;59.950;11.014;2022-08-30T14:09:09;100980.52;;;17.58;46.37
62864;BME280;48954;59.950;11.014;2022-08-30T14:11:44;100981.16;;;17.53;46.24
62864;BME280;48954;59.950;11.014;2022-08-30T14:14:27;100979.23;;;17.50;46.35
62864;BME280;48954;59.950;11.014;2022-08-30T14:16:57;100976.66;;;17.56;45.91
62864;BME280;48954;59.950;11.014;2022-08-30T14:19:41;100982.48;;;17.92;45.82
62864;BME280;48954;59.950;11.014;2022-08-30T14:22:13;100981.81;;;18.01;45.56
62864;BME280;48954;59.950;11.014;2022-08-30T14:24:42;100982.77;;;18.01;45.49
62864;BME280;48954;59.950;11.014;2022-08-30T14:27:12;100981.02;;;18.01;45.36
62864;BME280;48954;59.950;11.014;2022-08-30T14:30:13;100977.22;;;18.11;45.03
62864;BME280;48954;59.950;11.014;2022-08-30T14:32:54;100975.16;;;18.19;44.82
62864;BME280;48954;59.950;11.014;2022-08-30T14:35:24;100972.95;;;18.21;44.61
62864;BME280;48954;59.950;11.014;2022-08-30T14:37:52;100981.59;;;18.17;44.52